Time;durP1;ratioP1;P1;durP2;ratioP2;P2;SDS_P1;SDS_P2;PMS_P1;PMS_P2;Temp;Humidity;BMP_temperature;BMP_pressure;BME280_temperature;BME280_humidity;BME280_pressure;Samples;Min_cycle;Max_cycle;Signal;HPM_P1;HPM_P2
2021/08/14 00:00:39;;;;;;;13.03;7.10;;;22.40;90.40;;;;;;5075627;28;20432;-68
2021/08/14 00:03:07;;;;;;;9.20;5.57;;;22.40;90.30;;;;;;5074855;28;20440;-68
2021/08/14 00:05:37;;;;;;;11.63;5.53;;;22.40;90.30;;;;;;5075115;28;20455;-67
2021/08/14 00:08:06;;;;;;;9.13;5.90;;;22.40;90.20;;;;;;5075134;28;20448;-67
2021/08/14 00:10:33;;;;;;;10.67;5.67;;;22.40;90.30;;;;;;5075224;28;20537;-67
2021/08/14 00:13:02;;;;;;;8.30;5.30;;;22.40;90.50;;;;;;5074722;28;20433;-67
2021/08/14 00:15:32;;;;;;;9.43;6.20;;;22.40;90.50;;;;;;5073990;28;20463;-68
2021/08/14 00:17:59;;;;;;;14.63;5.93;;;22.40;90.50;;;;;;5074721;28;20446;-68
2021/08/14 00:20:28;;;;;;;8.97;5.47;;;22.40;90.50;;;;;;5075142;28;20443;-68
2021/08/14 00:23:00;;;;;;;14.23;5.60;;;22.40;90.60;;;;;;5074448;28;20561;-67
2021/08/14 00:25:30;;;;;;;10.47;5.10;;;22.30;90.70;;;;;;5074993;28;20523;-67
2021/08/14 00:27:57;;;;;;;9.47;5.20;;;22.30;91.30;;;;;;5074526;28;20487;-67
2021/08/14 00:30:26;;;;;;;9.60;5.60;;;22.30;90.90;;;;;;5075066;28;20482;-67
2021/08/14 00:32:59;;;;;;;9.73;6.10;;;22.30;90.90;;;;;;5074611;28;20934;-67
2021/08/14 00:35:28;;;;;;;14.33;6.03;;;22.30;90.90;;;;;;5074808;28;20926;-68
2021/08/14 00:37:58;;;;;;;9.60;5.80;;;22.30;91.00;;;;;;5074425;28;20520;-67
2021/08/14 00:40:26;;;;;;;9.23;6.17;;;22.30;91.10;;;;;;5074899;28;20517;-67
2021/08/14 00:42:53;;;;;;;9.63;5.43;;;22.30;91.20;;;;;;5073931;28;20442;-68
2021/08/14 00:45:20;;;;;;;11.00;6.33;;;22.30;91.20;;;;;;5074662;28;20791;-67
2021/08/14 00:47:51;;;;;;;8.30;5.73;;;22.30;91.10;;;;;;5074480;28;20435;-67
2021/08/14 00:50:18;;;;;;;18.70;6.03;;;22.30;91.20;;;;;;5074724;28;20874;-67
2021/08/14 00:52:45;;;;;;;9.73;5.03;;;22.20;91.50;;;;;;5073848;28;20922;-68
2021/08/14 00:55:13;;;;;;;9.23;5.43;;;22.20;91.60;;;;;;5074862;28;20436;-69
2021/08/14 00:57:42;;;;;;;12.60;6.00;;;22.20;91.60;;;;;;5074079;28;20527;-69
2021/08/14 01:00:13;;;;;;;9.93;6.00;;;22.10;91.50;;;;;;5074443;28;20444;-67
2021/08/14 01:02:40;;;;;;;10.73;7.20;;;22.10;91.60;;;;;;5073836;28;20442;-67
2021/08/14 01:05:10;;;;;;;12.20;6.40;;;22.10;91.80;;;;;;5074411;28;20444;-67
2021/08/14 01:07:37;;;;;;;12.50;5.40;;;22.10;91.70;;;;;;5074106;28;20451;-67
2021/08/14 01:10:06;;;;;;;12.30;6.77;;;22.00;91.70;;;;;;5074032;28;20827;-67
2021/08/14 01:12:33;;;;;;;18.40;7.30;;;22.00;91.90;;;;;;5073217;28;20799;-67
2021/08/14 01:15:00;;;;;;;11.30;6.40;;;22.00;92.00;;;;;;5073994;28;20483;-67
2021/08/14 01:17:28;;;;;;;14.93;6.53;;;22.00;92.10;;;;;;5073700;28;20501;-67
2021/08/14 01:19:56;;;;;;;10.43;6.20;;;22.10;92.10;;;;;;5074077;28;20451;-67
2021/08/14 01:22:24;;;;;;;10.90;5.87;;;22.10;92.20;;;;;;5073471;28;20440;-67
2021/08/14 01:24:53;;;;;;;14.93;5.60;;;22.10;92.20;;;;;;5073539;28;20431;-67
2021/08/14 01:27:22;;;;;;;7.53;5.80;;;22.10;92.30;;;;;;5073197;28;20570;-67
2021/08/14 01:29:49;;;;;;;11.50;5.90;;;22.00;92.20;;;;;;5073749;28;20518;-66
2021/08/14 01:32:17;;;;;;;11.73;6.37;;;22.00;92.20;;;;;;5073067;28;20444;-67
2021/08/14 01:34:45;;;;;;;15.20;5.53;;;22.10;92.30;;;;;;5073301;28;20472;-67
2021/08/14 01:37:13;;;;;;;14.53;7.07;;;22.10;92.40;;;;;;5073372;28;20550;-67
2021/08/14 01:39:40;;;;;;;14.80;7.60;;;22.00;92.30;;;;;;5073749;28;20445;-66
2021/08/14 01:42:08;;;;;;;12.73;7.43;;;22.00;92.40;;;;;;5073008;28;20443;-67
2021/08/14 01:44:38;;;;;;;14.60;7.07;;;22.00;92.40;;;;;;5073630;28;20768;-67
2021/08/14 01:47:06;;;;;;;16.40;6.97;;;22.00;92.60;;;;;;5073412;28;20432;-67
2021/08/14 01:49:33;;;;;;;10.00;6.87;;;22.00;92.70;;;;;;5073316;28;20488;-67
2021/08/14 01:52:00;;;;;;;8.27;5.53;;;22.00;92.70;;;;;;5072873;28;20519;-67
2021/08/14 01:54:27;;;;;;;8.40;6.33;;;21.90;92.60;;;;;;5073431;28;20481;-66
2021/08/14 01:56:54;;;;;;;12.10;5.97;;;21.90;92.60;;;;;;5072551;28;20478;-67
2021/08/14 01:59:21;;;;;;;8.60;6.30;;;21.90;92.70;;;;;;5073223;28;20510;-67
2021/08/14 02:01:50;;;;;;;10.00;7.17;;;21.90;92.80;;;;;;5072315;28;20830;-69
2021/08/14 02:04:17;;;;;;;11.23;6.80;;;21.80;92.70;;;;;;5073445;28;20440;-66
2021/08/14 02:06:45;;;;;;;11.00;6.17;;;21.80;92.80;;;;;;5072790;28;20467;-67
2021/08/14 02:09:12;;;;;;;8.90;5.23;;;21.80;93.10;;;;;;5073098;28;20444;-68
2021/08/14 02:11:40;;;;;;;8.40;5.90;;;21.80;93.10;;;;;;5072362;28;20523;-67
2021/08/14 02:14:08;;;;;;;9.00;6.43;;;21.80;93.00;;;;;;5073109;28;20493;-67
2021/08/14 02:16:35;;;;;;;10.47;6.47;;;21.70;93.20;;;;;;5072676;28;20432;-67
2021/08/14 02:19:05;;;;;;;12.00;6.43;;;21.70;93.20;;;;;;5073246;28;20519;-67
2021/08/14 02:21:33;;;;;;;8.03;5.90;;;21.70;93.20;;;;;;5072212;28;20489;-67
2021/08/14 02:24:00;;;;;;;9.40;6.60;;;21.70;93.10;;;;;;5072863;28;20443;-67
2021/08/14 02:26:28;;;;;;;14.67;6.80;;;21.60;93.20;;;;;;5072403;28;20475;-67
2021/08/14 02:28:56;;;;;;;11.10;7.00;;;21.60;93.30;;;;;;5072658;28;20439;-67
2021/08/14 02:31:23;;;;;;;10.53;6.97;;;21.60;93.70;;;;;;5072634;28;20513;-69
2021/08/14 02:33:52;;;;;;;10.60;5.50;;;21.50;93.40;;;;;;5072045;28;20442;-67
2021/08/14 02:36:21;;;;;;;8.77;6.43;;;21.60;93.40;;;;;;5072367;28;20444;-67
2021/08/14 02:38:48;;;;;;;14.60;6.77;;;21.50;93.50;;;;;;5072074;28;20444;-67
2021/08/14 02:41:15;;;;;;;12.10;7.13;;;21.50;93.90;;;;;;5072786;28;20743;-67
2021/08/14 02:43:42;;;;;;;8.27;5.60;;;21.40;93.90;;;;;;5071339;28;20942;-67
2021/08/14 02:46:09;;;;;;;12.00;6.27;;;21.40;93.60;;;;;;5072733;28;20498;-67
2021/08/14 02:48:36;;;;;;;11.73;5.80;;;21.40;93.60;;;;;;5072261;28;20837;-68
2021/08/14 02:51:04;;;;;;;10.23;6.03;;;21.40;93.70;;;;;;5072449;28;20985;-67
2021/08/14 02:53:32;;;;;;;9.03;7.10;;;21.40;93.80;;;;;;5071955;28;20528;-67
2021/08/14 02:55:59;;;;;;;11.10;5.30;;;21.40;93.90;;;;;;5072234;28;20447;-67
2021/08/14 02:58:28;;;;;;;13.77;6.70;;;21.40;93.80;;;;;;5072190;28;20489;-66
2021/08/14 03:00:57;;;;;;;11.97;6.13;;;21.30;93.80;;;;;;5071995;28;20451;-67
2021/08/14 03:03:24;;;;;;;9.40;5.77;;;21.30;93.90;;;;;;5072490;28;20433;-67
2021/08/14 03:05:52;;;;;;;8.40;7.00;;;21.20;93.90;;;;;;5071931;28;20436;-67
2021/08/14 03:08:19;;;;;;;8.63;6.27;;;21.20;93.90;;;;;;5072232;28;20531;-67
2021/08/14 03:10:48;;;;;;;10.40;6.80;;;21.30;93.90;;;;;;5071485;28;20487;-72
2021/08/14 03:13:17;;;;;;;11.53;6.67;;;21.20;93.90;;;;;;5071856;28;20528;-67
2021/08/14 03:15:44;;;;;;;9.17;5.87;;;21.20;94.00;;;;;;5072164;28;21009;-67
2021/08/14 03:18:11;;;;;;;9.47;5.27;;;21.20;94.10;;;;;;5072178;28;20448;-67
2021/08/14 03:20:39;;;;;;;13.10;5.97;;;21.20;94.10;;;;;;5071697;28;20441;-67
2021/08/14 03:23:06;;;;;;;11.30;6.43;;;21.20;94.10;;;;;;5072061;28;20442;-67
2021/08/14 03:25:33;;;;;;;9.20;5.90;;;21.10;94.10;;;;;;5072054;28;20507;-67
2021/08/14 03:28:02;;;;;;;11.67;6.17;;;21.10;94.20;;;;;;5070877;28;20510;-68
2021/08/14 03:30:29;;;;;;;11.17;7.70;;;21.00;94.30;;;;;;5071353;28;20476;-67
2021/08/14 03:32:56;;;;;;;9.80;6.03;;;21.00;94.50;;;;;;5072125;28;20463;-67
2021/08/14 03:35:23;;;;;;;8.07;6.50;;;20.90;94.60;;;;;;5071915;28;20436;-67
2021/08/14 03:37:50;;;;;;;13.13;8.70;;;20.80;94.70;;;;;;5071659;28;20443;-67
2021/08/14 03:40:22;;;;;;;7.97;6.70;;;20.80;95.00;;;;;;5072127;28;20464;-67
2021/08/14 03:42:50;;;;;;;10.07;6.30;;;20.70;95.20;;;;;;5051926;28;20479;-67
2021/08/14 03:45:19;;;;;;;11.27;5.33;;;20.80;95.20;;;;;;5066157;28;20440;-67
2021/08/14 03:47:46;;;;;;;11.23;6.60;;;20.80;95.20;;;;;;5071466;28;20432;-67
2021/08/14 03:50:14;;;;;;;11.50;7.13;;;20.80;95.30;;;;;;5074801;28;20486;-69
2021/08/14 03:52:42;;;;;;;11.93;7.13;;;20.80;95.30;;;;;;5075464;28;20439;-66
2021/08/14 03:55:13;;;;;;;9.40;6.20;;;20.80;95.30;;;;;;5075307;28;20444;-67
2021/08/14 03:57:48;;;;;;;9.50;5.90;;;20.90;95.40;;;;;;5075872;28;20431;-67
2021/08/14 04:00:22;;;;;;;9.77;6.40;;;20.90;95.20;;;;;;5075212;28;20454;-66
2021/08/14 04:02:49;;;;;;;10.10;5.77;;;20.80;95.10;;;;;;5075556;28;20437;-67
2021/08/14 04:05:16;;;;;;;11.30;6.47;;;20.80;95.20;;;;;;5075400;28;20844;-67
2021/08/14 04:07:46;;;;;;;9.37;6.27;;;20.90;95.30;;;;;;5075508;28;20526;-67
2021/08/14 04:10:19;;;;;;;9.40;6.33;;;20.80;95.20;;;;;;5074567;28;20467;-67
2021/08/14 04:12:49;;;;;;;10.27;6.10;;;20.80;95.30;;;;;;5074199;28;20436;-68
2021/08/14 04:15:16;;;;;;;11.03;6.80;;;20.90;95.40;;;;;;5075501;28;20566;-68
2021/08/14 04:17:45;;;;;;;8.90;6.60;;;20.80;95.20;;;;;;5075111;28;20439;-67
2021/08/14 04:20:16;;;;;;;16.70;6.83;;;20.80;95.30;;;;;;5074782;28;20436;-67
2021/08/14 04:22:45;;;;;;;15.10;6.90;;;20.80;95.30;;;;;;5074915;28;20432;-67
2021/08/14 04:25:14;;;;;;;9.30;6.70;;;20.80;95.40;;;;;;5074556;28;20428;-66
2021/08/14 04:27:41;;;;;;;8.67;6.20;;;20.70;95.40;;;;;;5074692;28;20479;-67
2021/08/14 04:30:15;;;;;;;11.27;6.10;;;20.80;95.40;;;;;;5075114;28;20468;-67
2021/08/14 04:32:50;;;;;;;11.70;6.67;;;20.70;95.40;;;;;;5074217;28;20436;-67
2021/08/14 04:35:32;;;;;;;12.67;6.87;;;20.80;95.40;;;;;;5074961;28;20435;-69
2021/08/14 04:38:01;;;;;;;10.33;6.10;;;20.80;95.50;;;;;;5074158;28;20449;-69
2021/08/14 04:40:29;;;;;;;9.10;6.60;;;20.80;95.50;;;;;;5074865;28;20447;-68
2021/08/14 04:42:56;;;;;;;13.77;7.30;;;20.80;95.60;;;;;;5074430;28;20471;-69
2021/08/14 04:45:30;;;;;;;14.87;8.27;;;20.80;95.70;;;;;;5074814;28;20821;-67
2021/08/14 04:47:58;;;;;;;9.37;7.07;;;20.80;95.80;;;;;;5074112;28;20443;-67
2021/08/14 04:50:26;;;;;;;12.87;6.70;;;20.90;95.80;;;;;;5074336;28;20966;-67
2021/08/14 04:52:53;;;;;;;9.10;5.93;;;20.90;95.50;;;;;;5074272;28;20778;-67
2021/08/14 04:55:20;;;;;;;9.00;6.40;;;21.00;95.60;;;;;;5073229;28;20524;-67
2021/08/14 04:57:48;;;;;;;8.40;5.80;;;21.00;95.50;;;;;;5074479;28;20448;-68
2021/08/14 05:00:16;;;;;;;10.33;7.47;;;21.00;95.50;;;;;;5072667;28;20440;-67
2021/08/14 05:02:43;;;;;;;9.90;6.00;;;21.00;95.40;;;;;;5074486;28;20492;-67
2021/08/14 05:05:12;;;;;;;12.47;6.60;;;21.10;95.60;;;;;;5074246;28;20927;-67
2021/08/14 05:07:39;;;;;;;9.80;6.10;;;21.10;95.50;;;;;;5074387;28;20432;-67
2021/08/14 05:10:13;;;;;;;9.50;6.10;;;21.00;95.50;;;;;;5073337;28;20481;-67
2021/08/14 05:12:44;;;;;;;9.87;6.87;;;21.00;95.70;;;;;;5070864;28;20466;-67
2021/08/14 05:15:15;;;;;;;10.53;6.90;;;21.00;95.80;;;;;;5070995;28;20440;-68
2021/08/14 05:17:42;;;;;;;9.20;6.73;;;21.10;95.90;;;;;;5069021;28;20467;-67
2021/08/14 05:20:11;;;;;;;9.13;6.07;;;21.10;95.70;;;;;;5072960;28;20483;-68
2021/08/14 05:22:39;;;;;;;10.20;5.90;;;21.20;96.00;;;;;;5072795;28;20462;-67
2021/08/14 05:25:16;;;;;;;11.67;6.97;;;21.20;96.10;;;;;;5072005;28;20520;-67
2021/08/14 05:27:45;;;;;;;13.00;6.93;;;21.30;96.00;;;;;;5072675;28;20532;-67
2021/08/14 05:30:13;;;;;;;13.83;7.80;;;21.30;95.90;;;;;;5070534;28;20472;-68
2021/08/14 05:32:40;;;;;;;13.70;7.50;;;21.40;95.60;;;;;;5068551;28;20527;-68
2021/08/14 05:35:12;;;;;;;9.03;6.47;;;21.50;95.80;;;;;;5072042;28;20934;-67
2021/08/14 05:37:40;;;;;;;11.67;8.63;;;21.50;95.90;;;;;;5071896;28;20523;-67
2021/08/14 05:40:12;;;;;;;10.77;7.30;;;21.60;95.90;;;;;;5070653;28;20524;-67
2021/08/14 05:42:39;;;;;;;13.70;7.73;;;21.80;95.50;;;;;;5071963;28;20873;-67
2021/08/14 05:45:12;;;;;;;11.97;7.20;;;21.80;95.10;;;;;;5071346;28;20494;-67
2021/08/14 05:47:41;;;;;;;13.90;7.07;;;21.80;95.20;;;;;;5072350;28;20519;-67
2021/08/14 05:50:14;;;;;;;8.40;6.70;;;21.80;95.20;;;;;;5068803;28;20440;-69
2021/08/14 05:52:50;;;;;;;8.47;6.10;;;21.80;95.50;;;;;;5071285;28;20813;-69
2021/08/14 05:55:17;;;;;;;12.20;7.00;;;21.90;95.80;;;;;;5071454;28;20444;-69
2021/08/14 05:57:50;;;;;;;11.67;7.50;;;22.00;95.90;;;;;;5069706;28;20509;-69
2021/08/14 06:00:18;;;;;;;10.20;7.00;;;22.10;96.10;;;;;;5070960;28;20995;-69
2021/08/14 06:02:45;;;;;;;13.93;6.67;;;22.20;96.20;;;;;;5071616;28;20438;-67
2021/08/14 06:05:14;;;;;;;14.03;7.93;;;22.30;96.00;;;;;;5071366;28;20447;-67
2021/08/14 06:07:49;;;;;;;15.90;6.90;;;22.50;95.60;;;;;;5069832;28;20459;-67
2021/08/14 06:10:25;;;;;;;10.30;7.80;;;22.60;95.60;;;;;;5071144;28;20440;-67
2021/08/14 06:12:52;;;;;;;10.50;7.00;;;22.70;95.00;;;;;;5071350;28;20436;-67
2021/08/14 06:15:20;;;;;;;13.00;7.13;;;22.70;94.70;;;;;;5070880;28;20441;-67
2021/08/14 06:17:47;;;;;;;13.83;7.53;;;22.90;94.70;;;;;;5070772;28;20456;-69
2021/08/14 06:20:16;;;;;;;10.10;6.27;;;23.00;94.70;;;;;;5070604;28;20448;-67
2021/08/14 06:22:50;;;;;;;13.97;8.03;;;23.10;94.50;;;;;;5070642;28;20436;-68
2021/08/14 06:25:20;;;;;;;12.10;7.57;;;23.30;94.40;;;;;;5071034;28;20846;-67
2021/08/14 06:27:48;;;;;;;13.30;7.90;;;23.30;93.30;;;;;;5071024;28;20985;-67
2021/08/14 06:30:18;;;;;;;13.00;7.47;;;23.40;93.60;;;;;;5070673;28;20484;-67
2021/08/14 06:32:45;;;;;;;15.50;7.60;;;23.50;93.70;;;;;;5071096;28;20880;-67
2021/08/14 06:35:12;;;;;;;10.67;6.83;;;23.60;93.20;;;;;;5071406;28;20451;-67
2021/08/14 06:37:46;;;;;;;12.70;8.17;;;23.70;93.50;;;;;;5072315;28;20935;-68
2021/08/14 06:40:16;;;;;;;19.80;9.50;;;23.80;92.70;;;;;;5071230;28;20823;-67
2021/08/14 06:42:43;;;;;;;13.63;8.73;;;23.80;92.10;;;;;;5072588;28;20447;-69
2021/08/14 06:45:11;;;;;;;10.50;7.70;;;23.90;92.00;;;;;;5072884;28;20453;-68
2021/08/14 06:47:39;;;;;;;9.77;7.10;;;24.00;92.00;;;;;;5072299;28;20807;-68
2021/08/14 06:50:07;;;;;;;11.27;8.90;;;24.10;91.60;;;;;;5069036;28;20455;-67
2021/08/14 06:52:35;;;;;;;9.00;7.40;;;24.20;91.10;;;;;;5069332;28;20480;-66
2021/08/14 06:55:05;;;;;;;12.63;7.57;;;24.30;90.80;;;;;;5072004;28;20922;-67
2021/08/14 06:57:34;;;;;;;13.30;7.90;;;24.40;91.00;;;;;;5072775;28;20524;-66
2021/08/14 07:00:11;;;;;;;9.73;7.03;;;24.50;91.00;;;;;;5072667;28;20468;-66
2021/08/14 07:02:41;;;;;;;13.93;8.57;;;24.70;91.20;;;;;;5072690;28;20924;-66
2021/08/14 07:05:08;;;;;;;9.13;7.10;;;24.80;91.20;;;;;;5072784;28;20915;-67
2021/08/14 07:07:35;;;;;;;8.57;7.07;;;25.00;91.00;;;;;;5072776;28;20524;-67
2021/08/14 07:10:05;;;;;;;14.20;7.83;;;25.10;90.10;;;;;;5072980;28;20509;-67
2021/08/14 07:12:32;;;;;;;12.53;9.00;;;25.20;89.20;;;;;;5072818;28;20894;-68
2021/08/14 07:14:59;;;;;;;13.80;7.50;;;25.30;89.60;;;;;;5072885;28;20446;-67
2021/08/14 07:17:26;;;;;;;10.87;7.73;;;25.40;90.00;;;;;;5073058;28;20438;-67
2021/08/14 07:19:53;;;;;;;11.43;7.93;;;25.60;90.00;;;;;;5072856;28;20526;-67
2021/08/14 07:22:21;;;;;;;14.00;7.50;;;25.70;86.40;;;;;;5072633;28;20525;-67
2021/08/14 07:24:48;;;;;;;13.00;7.53;;;25.70;83.40;;;;;;5076069;28;20912;-67
2021/08/14 07:27:16;;;;;;;9.63;7.27;;;25.80;82.00;;;;;;5076531;28;20463;-67
2021/08/14 07:29:49;;;;;;;10.97;6.70;;;25.90;83.00;;;;;;5076877;28;20514;-67
2021/08/14 07:32:16;;;;;;;14.07;8.00;;;26.00;83.70;;;;;;5076796;28;20483;-67
2021/08/14 07:34:43;;;;;;;12.20;6.80;;;26.20;84.10;;;;;;5076501;28;20527;-67
2021/08/14 07:37:10;;;;;;;9.60;7.37;;;26.40;84.50;;;;;;5076323;28;20530;-68
2021/08/14 07:39:43;;;;;;;10.33;7.40;;;26.50;84.10;;;;;;5076626;28;20527;-67
2021/08/14 07:42:12;;;;;;;10.03;7.07;;;26.70;84.30;;;;;;5076315;28;20482;-68
2021/08/14 07:44:41;;;;;;;9.90;7.40;;;26.90;84.00;;;;;;5076380;28;20523;-68
2021/08/14 07:47:09;;;;;;;9.20;6.33;;;27.00;84.60;;;;;;5076191;28;20432;-67
2021/08/14 07:49:36;;;;;;;8.83;6.07;;;27.20;83.00;;;;;;5076520;28;20995;-67
2021/08/14 07:52:04;;;;;;;11.30;6.00;;;27.30;81.10;;;;;;5076290;28;20486;-67
2021/08/14 07:54:31;;;;;;;14.00;6.43;;;27.40;81.70;;;;;;5076131;28;20482;-67
2021/08/14 07:56:59;;;;;;;9.47;7.40;;;27.60;81.20;;;;;;5076186;28;20510;-66
2021/08/14 07:59:26;;;;;;;14.63;6.93;;;27.70;80.00;;;;;;5076154;28;20483;-68
2021/08/14 08:01:55;;;;;;;10.67;6.50;;;27.80;79.50;;;;;;5076028;28;20444;-67
2021/08/14 08:04:22;;;;;;;11.83;6.50;;;27.90;79.60;;;;;;5075997;28;20527;-67
2021/08/14 08:06:49;;;;;;;9.33;6.70;;;28.10;78.00;;;;;;5075857;28;20918;-67
2021/08/14 08:09:16;;;;;;;9.33;5.70;;;28.20;76.60;;;;;;5076141;28;20902;-67
2021/08/14 08:11:43;;;;;;;11.20;6.43;;;28.40;75.20;;;;;;5076146;28;20475;-67
2021/08/14 08:14:15;;;;;;;8.27;5.97;;;28.40;68.40;;;;;;5075643;28;20519;-68
2021/08/14 08:16:44;;;;;;;8.90;7.17;;;28.50;71.00;;;;;;5075749;28;20427;-67
2021/08/14 08:19:12;;;;;;;8.57;6.33;;;28.60;70.60;;;;;;5075747;28;20440;-67
2021/08/14 08:21:39;;;;;;;8.07;6.80;;;28.70;69.00;;;;;;5075832;28;20443;-67
2021/08/14 08:24:06;;;;;;;8.60;6.20;;;28.90;68.20;;;;;;5075739;28;20443;-67
2021/08/14 08:26:33;;;;;;;11.33;6.90;;;29.00;66.20;;;;;;5074856;28;20469;-67
2021/08/14 08:29:01;;;;;;;7.43;6.27;;;29.10;68.20;;;;;;5075722;28;20525;-67
2021/08/14 08:31:29;;;;;;;10.40;6.30;;;29.20;66.70;;;;;;5075173;28;20486;-67
2021/08/14 08:33:56;;;;;;;8.87;6.63;;;29.40;68.10;;;;;;5075414;28;20443;-67
2021/08/14 08:36:24;;;;;;;6.87;6.07;;;29.60;67.30;;;;;;5074294;28;20521;-67
2021/08/14 08:38:51;;;;;;;9.63;7.33;;;29.60;66.70;;;;;;5075287;28;20490;-68
2021/08/14 08:41:23;;;;;;;12.03;7.40;;;29.60;63.70;;;;;;5075288;28;20483;-68
2021/08/14 08:43:50;;;;;;;10.13;6.67;;;29.70;66.60;;;;;;5075261;28;20774;-67
2021/08/14 08:46:20;;;;;;;10.60;6.40;;;29.90;65.30;;;;;;5075300;28;20542;-67
2021/08/14 08:48:50;;;;;;;7.43;6.33;;;30.00;63.30;;;;;;5075116;28;20818;-67
2021/08/14 08:51:21;;;;;;;12.53;6.97;;;30.20;64.20;;;;;;5075408;28;20802;-67
2021/08/14 08:53:50;;;;;;;9.00;7.07;;;30.30;65.20;;;;;;5075146;28;20435;-67
2021/08/14 08:56:17;;;;;;;10.03;6.50;;;30.40;62.20;;;;;;5075079;28;20428;-67
2021/08/14 08:58:49;;;;;;;10.40;7.40;;;30.50;60.80;;;;;;5074976;28;20836;-67
2021/08/14 09:01:20;;;;;;;9.67;6.70;;;30.60;62.70;;;;;;5075220;28;20531;-68
2021/08/14 09:03:47;;;;;;;19.47;8.30;;;30.70;60.30;;;;;;5075057;28;20852;-68
2021/08/14 09:06:15;;;;;;;11.40;7.30;;;30.80;58.80;;;;;;5074800;28;20763;-67
2021/08/14 09:08:43;;;;;;;7.93;7.10;;;30.80;59.20;;;;;;5074824;28;20858;-68
2021/08/14 09:11:13;;;;;;;12.90;8.40;;;31.00;60.30;;;;;;5074739;28;20993;-67
2021/08/14 09:14:21;;;;;;;10.97;9.87;;;31.00;59.20;;;;;;5074250;28;20472;-68
2021/08/14 09:17:04;;;;;;;16.00;7.50;;;31.20;61.20;;;;;;5074600;28;20850;-67
2021/08/14 09:19:31;;;;;;;9.27;7.80;;;31.50;60.10;;;;;;5074659;28;20447;-67
2021/08/14 09:22:11;;;;;;;12.00;7.20;;;31.70;61.60;;;;;;5074482;28;20478;-67
2021/08/14 09:24:38;;;;;;;9.73;7.30;;;31.80;59.40;;;;;;5074550;28;20526;-67
2021/08/14 09:27:15;;;;;;;9.40;6.77;;;32.00;58.20;;;;;;5074001;28;20480;-67
2021/08/14 09:29:44;;;;;;;9.90;6.63;;;32.10;57.40;;;;;;5074161;28;20439;-67
2021/08/14 09:32:14;;;;;;;9.40;6.50;;;32.10;58.10;;;;;;5074031;28;20486;-68
2021/08/14 09:34:45;;;;;;;10.00;6.37;;;32.20;58.70;;;;;;5073810;28;20432;-68
2021/08/14 09:37:13;;;;;;;11.17;6.90;;;32.20;56.60;;;;;;5073832;28;20432;-68
2021/08/14 09:39:53;;;;;;;9.23;7.30;;;32.30;55.40;;;;;;5074148;28;20535;-69
2021/08/14 09:42:27;;;;;;;8.73;6.10;;;32.40;56.70;;;;;;5074010;28;20792;-68
2021/08/14 09:45:12;;;;;;;11.30;7.80;;;32.50;57.10;;;;;;5073924;28;20485;-67
2021/08/14 09:47:39;;;;;;;7.17;6.43;;;32.70;56.20;;;;;;5073563;28;20790;-67
2021/08/14 09:50:09;;;;;;;12.77;6.80;;;32.90;54.80;;;;;;5073874;28;20957;-67
2021/08/14 09:52:37;;;;;;;12.10;7.77;;;32.90;55.70;;;;;;5073442;28;20575;-67
2021/08/14 09:55:05;;;;;;;8.37;7.23;;;33.00;56.30;;;;;;5073366;28;20519;-67
2021/08/14 09:57:33;;;;;;;8.70;6.33;;;33.10;55.50;;;;;;5073835;28;20553;-67
2021/08/14 10:00:02;;;;;;;10.03;7.00;;;33.30;55.30;;;;;;5073575;28;20532;-67
2021/08/14 10:02:30;;;;;;;12.13;7.30;;;33.20;52.80;;;;;;5073423;28;20432;-67
2021/08/14 10:04:58;;;;;;;12.23;8.20;;;33.20;53.00;;;;;;5074038;28;20501;-67
2021/08/14 10:07:31;;;;;;;12.70;6.73;;;33.30;51.60;;;;;;5073321;28;20527;-67
2021/08/14 10:10:01;;;;;;;8.33;6.10;;;33.30;54.10;;;;;;5073204;28;20511;-67
2021/08/14 10:12:32;;;;;;;10.87;6.77;;;33.30;53.40;;;;;;5073202;28;20488;-68
2021/08/14 10:15:00;;;;;;;8.37;6.53;;;33.50;54.40;;;;;;5073390;28;20497;-67
2021/08/14 10:17:34;;;;;;;14.53;6.63;;;33.60;53.70;;;;;;5073307;28;20446;-67
2021/08/14 10:20:02;;;;;;;10.43;6.13;;;33.70;53.80;;;;;;5073283;28;20519;-68
2021/08/14 10:22:34;;;;;;;8.17;6.90;;;33.70;52.70;;;;;;5073204;28;20436;-67
2021/08/14 10:25:13;;;;;;;9.37;7.30;;;33.70;53.40;;;;;;5073224;28;20593;-67
2021/08/14 10:27:55;;;;;;;12.77;7.40;;;33.80;52.20;;;;;;5073090;28;20777;-68
2021/08/14 10:30:47;;;;;;;10.07;6.40;;;34.00;53.00;;;;;;5073309;28;20478;-67
2021/08/14 10:33:37;;;;;;;9.50;6.47;;;34.10;52.40;;;;;;5073246;28;20519;-67
2021/08/14 10:36:37;;;;;;;13.57;6.40;;;34.10;50.00;;;;;;5073202;28;20439;-68
2021/08/14 10:39:18;;;;;;;6.67;5.73;;;34.10;48.60;;;;;;5011157;28;20530;-67
2021/08/14 10:41:50;;;;;;;7.63;5.60;;;34.00;49.40;;;;;;5011146;28;20488;-67
2021/08/14 10:44:46;;;;;;;8.33;6.57;;;34.00;49.90;;;;;;5046775;28;20490;-67
2021/08/14 10:47:42;;;;;;;8.50;6.10;;;34.10;51.60;;;;;;5073258;28;20501;-67
2021/08/14 10:50:09;;;;;;;11.87;6.73;;;34.10;49.00;;;;;;5073082;28;20435;-72
2021/08/14 10:52:37;;;;;;;7.80;7.00;;;34.00;49.50;;;;;;5073256;28;20571;-67
2021/08/14 10:55:11;;;;;;;15.07;6.90;;;34.10;49.70;;;;;;5073224;28;20432;-67
2021/08/14 10:57:51;;;;;;;12.20;7.83;;;34.10;50.70;;;;;;5072667;28;20468;-67
2021/08/14 11:00:37;;;;;;;10.80;7.07;;;34.20;50.90;;;;;;5073039;28;20906;-68
2021/08/14 11:03:12;;;;;;;13.17;7.77;;;34.30;49.60;;;;;;5073130;28;20794;-67
2021/08/14 11:05:45;;;;;;;7.83;6.70;;;34.40;49.30;;;;;;5073300;28;20442;-67
2021/08/14 11:08:32;;;;;;;10.80;7.23;;;34.50;49.00;;;;;;5072895;28;20447;-68
2021/08/14 11:11:02;;;;;;;9.63;6.73;;;34.50;50.00;;;;;;5073028;28;20428;-68
2021/08/14 11:14:07;;;;;;;9.00;6.20;;;34.60;48.00;;;;;;5072684;28;20526;-67
2021/08/14 11:16:59;;;;;;;10.30;5.87;;;34.60;46.50;;;;;;5072917;28;20453;-67
2021/08/14 11:19:52;;;;;;;7.90;6.30;;;34.60;47.30;;;;;;5072491;28;20432;-67
2021/08/14 11:22:21;;;;;;;11.00;6.40;;;34.50;50.60;;;;;;5072995;28;20531;-67
2021/08/14 11:24:49;;;;;;;9.90;5.90;;;34.60;50.10;;;;;;5072766;28;20471;-67
2021/08/14 11:27:21;;;;;;;8.57;5.70;;;34.60;48.00;;;;;;5072445;28;20589;-67
2021/08/14 11:29:56;;;;;;;8.70;5.60;;;34.70;48.30;;;;;;5072626;28;20523;-67
2021/08/14 11:32:30;;;;;;;11.70;7.03;;;34.70;46.20;;;;;;5072755;28;20827;-67
2021/08/14 11:35:00;;;;;;;9.07;6.30;;;34.80;45.80;;;;;;5072952;28;20518;-67
2021/08/14 11:37:32;;;;;;;15.53;6.90;;;34.70;44.40;;;;;;5072707;28;20530;-67
2021/08/14 11:40:03;;;;;;;9.70;6.40;;;34.60;47.30;;;;;;5072771;28;21025;-68
2021/08/14 11:42:36;;;;;;;13.70;7.43;;;34.60;46.00;;;;;;5072799;28;20440;-67
2021/08/14 11:45:04;;;;;;;12.77;6.90;;;34.70;46.80;;;;;;5072756;28;20432;-68
2021/08/14 11:47:33;;;;;;;8.00;5.87;;;34.50;45.70;;;;;;5072430;28;20519;-67
2021/08/14 11:50:02;;;;;;;14.13;7.50;;;34.50;47.40;;;;;;5072525;28;20985;-67
2021/08/14 11:52:32;;;;;;;9.23;6.93;;;34.50;46.90;;;;;;5072378;28;20471;-68
2021/08/14 11:55:03;;;;;;;11.90;6.20;;;34.50;48.60;;;;;;5072547;28;20522;-68
2021/08/14 11:57:33;;;;;;;13.30;6.60;;;34.60;46.40;;;;;;5072567;28;20820;-68
2021/08/14 12:00:05;;;;;;;12.40;5.67;;;34.60;47.80;;;;;;5072350;28;20977;-68
2021/08/14 12:02:33;;;;;;;12.27;6.57;;;34.60;47.50;;;;;;5072248;28;20498;-68
2021/08/14 12:05:01;;;;;;;12.20;6.53;;;34.70;47.60;;;;;;5072501;28;20519;-68
2021/08/14 12:07:28;;;;;;;12.70;7.13;;;34.80;48.30;;;;;;5072151;28;20844;-68
2021/08/14 12:10:00;;;;;;;9.27;6.87;;;34.80;48.80;;;;;;5073919;28;20527;-68
2021/08/14 12:12:32;;;;;;;11.70;5.70;;;34.90;49.40;;;;;;5075985;28;20501;-68
2021/08/14 12:14:59;;;;;;;8.73;6.43;;;34.90;46.70;;;;;;5075743;28;20472;-68
2021/08/14 12:17:26;;;;;;;10.77;5.80;;;34.90;46.20;;;;;;5075951;28;20428;-68
2021/08/14 12:19:55;;;;;;;8.20;6.77;;;34.90;47.20;;;;;;5075701;28;20440;-68
2021/08/14 12:22:31;;;;;;;8.73;5.90;;;34.90;47.70;;;;;;5075562;28;20854;-68
2021/08/14 12:24:58;;;;;;;11.83;6.40;;;34.90;47.80;;;;;;5075767;28;20477;-68
2021/08/14 12:27:31;;;;;;;14.47;6.20;;;34.80;46.70;;;;;;5075311;28;20467;-68
2021/08/14 12:30:17;;;;;;;11.47;6.73;;;34.80;45.30;;;;;;5075496;28;20989;-68
2021/08/14 12:32:44;;;;;;;9.13;6.97;;;34.70;46.70;;;;;;5075635;28;20558;-68
2021/08/14 12:35:20;;;;;;;9.97;6.07;;;34.70;48.10;;;;;;5075703;28;20471;-69
2021/08/14 12:37:50;;;;;;;7.20;6.03;;;34.80;47.50;;;;;;5075076;28;20436;-68
2021/08/14 12:40:22;;;;;;;13.23;6.63;;;34.80;46.90;;;;;;5075338;28;20497;-69
2021/08/14 12:42:50;;;;;;;11.13;5.57;;;34.70;45.50;;;;;;5075398;28;20444;-68
2021/08/14 12:45:21;;;;;;;14.83;6.03;;;34.60;45.40;;;;;;5075100;28;20450;-68
2021/08/14 12:47:50;;;;;;;8.93;6.10;;;34.60;46.20;;;;;;5075190;28;20992;-68
2021/08/14 12:50:26;;;;;;;9.90;6.53;;;34.70;46.20;;;;;;5074903;28;20527;-67
2021/08/14 12:52:57;;;;;;;13.17;6.40;;;34.60;46.10;;;;;;5075036;28;20499;-68
2021/08/14 12:55:28;;;;;;;9.43;6.73;;;34.60;48.90;;;;;;5075264;28;20448;-67